Enter the Airport ICAO Code

Search by Airport or City

Current Weather

LELN | León Airport

León, Castile and León, Spain

Last Update 7 Minutes Ago

Partly Cloudy Sky

Temperature of 16 ºC

Light to Moderate Winds from SouthWest

Temperature

16 ºC

Dew Point Temperature

09 ºC

Relative Humidity

63.3 %

Wind Direction

SouthWest (220º, Without Significant Variations)

Wind Velocity

17 km/h (09 kt)

Gusts

None

Visibility

Greater than 10 Kilometers

Sea Level Pressure

1016 hPa (Hectopascals)

Layers of Clouds

30% to 60% of Sky Covered from 1067 mts (3500 ft) Above Ground Level.

30% to 60% of Sky Covered from 1341 mts (4400 ft) Above Ground Level.

METAR LELN 191130Z 22009KT 9999 SCT035 SCT044 16/09 Q1016

Weather Forecast

LELN | León Airport

León, Castile and León, Spain

Forecast valid for the next 21 Hours

From now on it is expected:

Partly Cloudy Sky

Light to Moderate Winds from South

From now on it is expected 7 hours with intermittent periods of:

Rain, Rain

In 15 hours it is expected the begining of 6 hours with intermittent periods of:

Rain

Maximum Temperature

19 ºC in 4 Hours

Minimum Temperature

09 ºC in 17 Hours

TAF LELN 190800Z 1909/2009 20008KT 9999 SCT035 TX19/1916Z TN09/2005Z PROB30 TEMPO 1909/1910 BKN005 PROB40 TEMPO 1909/1919 4000 SHRA RA FEW030TCU SCT035CB PROB40 TEMPO 2003/2009 RA BKN012